createdAt,value
2022-08-24T00:01:51.279Z,3.90
2022-08-24T00:04:18.319Z,2.08
2022-08-24T00:06:45.733Z,3.28
2022-08-24T00:09:12.677Z,3.38
2022-08-24T00:11:39.971Z,7.88
2022-08-24T00:14:07.994Z,2.67
2022-08-24T00:16:35.671Z,3.85
2022-08-24T00:19:03.472Z,3.92
2022-08-24T00:21:30.612Z,3.15
2022-08-24T00:23:57.747Z,6.32
2022-08-24T00:26:29.450Z,3.60
2022-08-24T00:28:57.793Z,1.85
2022-08-24T00:31:25.673Z,3.97
2022-08-24T00:33:53.083Z,4.03
2022-08-24T00:36:21.906Z,4.93
2022-08-24T00:38:49.792Z,3.88
2022-08-24T00:41:17.376Z,4.70
2022-08-24T00:44:11.521Z,4.47
2022-08-24T00:47:01.542Z,5.53
2022-08-24T00:49:40.747Z,6.93
2022-08-24T00:52:40.632Z,8.35
2022-08-24T00:55:13.976Z,2.70
2022-08-24T00:57:44.051Z,5.40
2022-08-24T01:00:19.900Z,4.00
2022-08-24T01:02:51.573Z,1.70
2022-08-24T01:05:20.515Z,2.63
2022-08-24T01:07:49.470Z,3.20
2022-08-24T01:10:27.375Z,6.55
2022-08-24T01:13:00.546Z,2.83
2022-08-24T01:15:33.806Z,3.33
2022-08-24T01:18:31.545Z,5.45
2022-08-24T01:21:25.037Z,4.32
2022-08-24T01:23:59.906Z,3.80
2022-08-24T01:26:47.840Z,7.63
2022-08-24T01:29:27.668Z,4.45
2022-08-24T01:31:55.517Z,5.82
2022-08-24T01:34:22.942Z,5.20
2022-08-24T01:36:59.591Z,3.05
2022-08-24T01:39:31.213Z,9.35
2022-08-24T01:42:00.024Z,3.25
2022-08-24T01:44:31.049Z,6.40
2022-08-24T01:46:58.612Z,2.25
2022-08-24T01:49:30.063Z,3.72
2022-08-24T01:51:58.845Z,4.72
2022-08-24T01:54:27.128Z,4.78
2022-08-24T01:56:54.998Z,4.05
2022-08-24T01:59:22.326Z,4.10
2022-08-24T02:01:55.122Z,6.60
2022-08-24T02:04:27.586Z,3.33
2022-08-24T02:06:55.587Z,2.92
2022-08-24T02:09:22.817Z,7.25
2022-08-24T02:11:53.965Z,5.35
2022-08-24T02:14:22.035Z,9.45
2022-08-24T02:16:49.957Z,3.08
2022-08-24T02:19:25.471Z,3.30
2022-08-24T02:21:52.645Z,4.88
2022-08-24T02:24:19.682Z,6.40
2022-08-24T02:26:46.731Z,2.53
2022-08-24T02:29:13.966Z,4.70
2022-08-24T02:31:41.452Z,5.03
2022-08-24T02:34:09.119Z,2.60
2022-08-24T02:36:36.462Z,4.65
2022-08-24T02:39:04.942Z,7.57
2022-08-24T02:41:34.578Z,3.85
2022-08-24T02:44:02.531Z,4.25
2022-08-24T02:46:30.880Z,3.72
2022-08-24T02:49:10.661Z,3.30
2022-08-24T02:51:44.948Z,4.68
2022-08-24T02:54:17.999Z,4.35
2022-08-24T02:56:47.521Z,5.33
2022-08-24T02:59:17.215Z,6.25
2022-08-24T03:01:44.878Z,4.93
2022-08-24T03:04:12.809Z,5.68
2022-08-24T03:06:39.939Z,5.00
2022-08-24T03:09:08.229Z,6.55
2022-08-24T03:11:35.306Z,7.78
2022-08-24T03:14:02.753Z,5.63
2022-08-24T03:16:31.971Z,6.22
2022-08-24T03:19:01.162Z,6.25
2022-08-24T03:21:31.527Z,7.90
2022-08-24T03:23:59.143Z,4.25
2022-08-24T03:26:26.129Z,5.63
2022-08-24T03:28:54.560Z,7.32
2022-08-24T03:31:21.950Z,3.92
2022-08-24T03:33:51.857Z,5.57
2022-08-24T03:36:19.296Z,4.38
2022-08-24T03:38:46.246Z,5.35
2022-08-24T03:41:13.643Z,8.25
2022-08-24T03:43:48.792Z,8.70
2022-08-24T03:46:28.850Z,7.15
2022-08-24T03:48:58.077Z,5.55
2022-08-24T03:51:28.419Z,9.48
2022-08-24T03:53:58.597Z,5.95
2022-08-24T03:58:55.852Z,6.50
2022-08-24T04:01:25.181Z,6.45
2022-08-24T04:03:55.501Z,5.07
2022-08-24T04:06:27.975Z,6.88
2022-08-24T04:08:56.909Z,9.77
2022-08-24T04:11:26.555Z,8.35
2022-08-24T04:13:58.908Z,5.85
2022-08-24T04:19:05.956Z,7.63
2022-08-24T04:21:36.721Z,6.40
2022-08-24T04:24:09.150Z,7.13
2022-08-24T04:26:45.691Z,6.30
2022-08-24T04:29:19.455Z,8.48
2022-08-24T04:31:53.616Z,9.98
2022-08-24T04:34:21.663Z,8.15
2022-08-24T04:36:49.909Z,5.82
2022-08-24T04:39:17.199Z,11.27
2022-08-24T04:42:07.184Z,8.43
2022-08-24T04:44:40.004Z,11.80
2022-08-24T04:47:08.589Z,6.43
2022-08-24T04:49:38.299Z,5.97
2022-08-24T04:52:08.200Z,7.75
2022-08-24T04:54:35.496Z,10.93
2022-08-24T04:57:08.733Z,9.45
2022-08-24T04:59:36.363Z,11.73
2022-08-24T05:02:03.816Z,8.77
2022-08-24T05:04:31.272Z,8.10
2022-08-24T05:06:59.081Z,12.88
2022-08-24T05:09:27.506Z,12.73
2022-08-24T05:11:55.978Z,9.77
2022-08-24T05:14:28.967Z,6.40
2022-08-24T05:16:57.124Z,10.75
2022-08-24T05:19:24.470Z,11.13
2022-08-24T05:21:51.635Z,10.15
2022-08-24T05:24:19.941Z,13.00
2022-08-24T05:26:48.208Z,6.97
2022-08-24T05:29:17.009Z,9.10
2022-08-24T05:31:48.109Z,14.80
2022-08-24T05:34:16.375Z,11.70
2022-08-24T05:36:44.039Z,11.18
2022-08-24T05:39:37.347Z,12.52
2022-08-24T05:42:07.936Z,10.73
2022-08-24T05:44:38.590Z,12.63
2022-08-24T05:47:05.931Z,14.77
2022-08-24T05:49:34.894Z,12.23
2022-08-24T05:52:03.754Z,11.05
2022-08-24T05:54:30.919Z,10.63
2022-08-24T05:57:05.207Z,11.23
2022-08-24T05:59:41.990Z,12.57
2022-08-24T06:02:14.887Z,11.60
2022-08-24T06:04:42.268Z,11.90
2022-08-24T06:07:10.224Z,10.55
2022-08-24T06:09:41.434Z,12.25
2022-08-24T06:12:09.316Z,8.13
2022-08-24T06:14:37.282Z,11.23
2022-08-24T06:17:10.694Z,7.82
2022-08-24T06:22:05.424Z,11.68
2022-08-24T06:24:55.642Z,10.48
2022-08-24T06:27:23.728Z,13.07
2022-08-24T06:29:57.145Z,9.48
2022-08-24T06:32:44.177Z,13.88
2022-08-24T06:35:19.321Z,13.25
2022-08-24T06:37:46.398Z,13.60
2022-08-24T06:40:16.985Z,14.55
2022-08-24T06:42:44.157Z,15.18
2022-08-24T06:45:25.335Z,15.00
2022-08-24T06:47:53.947Z,14.25
2022-08-24T06:50:24.408Z,14.23
2022-08-24T06:52:52.184Z,11.93
2022-08-24T06:55:19.488Z,14.05
2022-08-24T06:57:51.665Z,17.95
2022-08-24T07:00:20.776Z,18.23
2022-08-24T07:02:48.623Z,16.40
2022-08-24T07:05:16.670Z,20.33
2022-08-24T07:08:07.582Z,16.08
2022-08-24T07:10:35.426Z,21.10
2022-08-24T07:13:04.091Z,12.98
2022-08-24T07:15:31.227Z,12.77
2022-08-24T07:18:11.346Z,23.55
2022-08-24T07:20:45.038Z,10.68
2022-08-24T07:23:21.511Z,22.10
2022-08-24T07:25:52.160Z,13.73
2022-08-24T07:28:27.710Z,13.25
2022-08-24T07:31:01.279Z,12.32
2022-08-24T07:33:34.150Z,15.18
2022-08-24T07:36:01.461Z,19.30
2022-08-24T07:38:29.287Z,15.73
2022-08-24T07:41:20.578Z,11.32
2022-08-24T07:43:47.542Z,9.25
2022-08-24T07:46:15.525Z,11.63
2022-08-24T07:48:42.685Z,17.30
2022-08-24T07:51:12.520Z,12.10
2022-08-24T07:53:53.662Z,18.48
2022-08-24T07:56:25.567Z,12.40
2022-08-24T07:58:54.495Z,17.80
2022-08-24T08:01:22.622Z,16.73
2022-08-24T08:03:51.893Z,20.65
2022-08-24T08:06:19.908Z,16.30
2022-08-24T08:08:49.785Z,16.98
2022-08-24T08:11:17.361Z,16.42
2022-08-24T08:13:45.325Z,22.77
2022-08-24T08:16:19.505Z,20.38
2022-08-24T08:18:52.418Z,15.98
2022-08-24T08:21:52.270Z,19.05
2022-08-24T08:24:20.559Z,16.20
2022-08-24T08:26:52.804Z,17.60
2022-08-24T08:29:28.570Z,16.23
2022-08-24T08:32:00.682Z,13.10
2022-08-24T08:34:31.422Z,14.55
2022-08-24T08:37:00.144Z,12.68
2022-08-24T08:39:28.106Z,11.68
2022-08-24T08:42:18.164Z,11.55
2022-08-24T08:44:53.872Z,11.25
2022-08-24T08:47:30.781Z,10.75
2022-08-24T08:49:58.675Z,17.88
2022-08-24T08:52:49.130Z,10.77
2022-08-24T08:55:41.536Z,11.48
2022-08-24T08:58:33.861Z,9.48
2022-08-24T09:01:16.109Z,14.73
2022-08-24T09:04:17.204Z,14.25
2022-08-24T09:07:15.860Z,11.23
2022-08-24T09:10:19.180Z,12.05
2022-08-24T09:13:22.966Z,11.38
2022-08-24T09:16:10.438Z,8.40
2022-08-24T09:18:57.929Z,6.93
2022-08-24T09:21:45.638Z,14.20
2022-08-24T09:24:17.640Z,10.98
2022-08-24T09:27:13.242Z,9.70
2022-08-24T09:29:56.168Z,14.73
2022-08-24T09:33:15.405Z,11.23
2022-08-24T09:35:51.668Z,12.35
2022-08-24T09:38:48.806Z,13.43
2022-08-24T09:41:49.941Z,16.33
2022-08-24T09:45:04.925Z,14.80
2022-08-24T09:47:51.455Z,13.00
2022-08-24T09:50:23.673Z,10.32
2022-08-24T09:53:05.800Z,7.50
2022-08-24T09:55:45.306Z,16.20
2022-08-24T09:58:57.897Z,13.38
2022-08-24T10:04:31.394Z,6.10
2022-08-24T10:07:12.393Z,6.78
2022-08-24T10:09:58.921Z,5.15
2022-08-24T10:12:28.525Z,9.15
2022-08-24T10:15:02.227Z,9.43
2022-08-24T10:17:45.319Z,8.80
2022-08-24T10:20:33.322Z,2.78
2022-08-24T10:23:43.661Z,7.95
2022-08-24T10:26:16.786Z,4.53
2022-08-24T10:29:11.258Z,9.25
2022-08-24T10:31:50.408Z,4.43
2022-08-24T10:34:27.460Z,1.92
2022-08-24T10:37:18.993Z,1.70
2022-08-24T10:40:13.430Z,5.70
2022-08-24T10:43:26.850Z,5.97
2022-08-24T10:46:24.907Z,15.63
2022-08-24T10:49:06.929Z,7.25
2022-08-24T10:52:13.794Z,5.07
2022-08-24T10:54:41.240Z,5.10
2022-08-24T10:57:26.703Z,4.03
2022-08-24T11:00:20.315Z,5.43
2022-08-24T11:03:05.000Z,5.13
2022-08-24T11:05:41.512Z,2.92
2022-08-24T11:08:08.945Z,3.90
2022-08-24T11:10:39.161Z,8.30
2022-08-24T11:13:17.953Z,6.30
2022-08-24T11:15:58.112Z,4.65
2022-08-24T11:18:25.938Z,4.13
2022-08-24T11:20:55.584Z,4.40
2022-08-24T11:23:34.936Z,4.07
2022-08-24T11:26:05.916Z,4.85
2022-08-24T11:28:36.768Z,6.90
2022-08-24T11:31:04.243Z,4.85
2022-08-24T11:33:35.122Z,2.45
2022-08-24T11:36:03.498Z,8.45
2022-08-24T11:38:34.945Z,5.65
2022-08-24T11:41:19.187Z,5.05
2022-08-24T11:44:07.607Z,4.38
2022-08-24T11:46:46.865Z,9.65
2022-08-24T11:49:33.004Z,3.75
2022-08-24T11:52:22.947Z,8.50
2022-08-24T11:55:17.333Z,3.70
2022-08-24T11:58:04.286Z,4.80
2022-08-24T12:00:47.663Z,1.83
2022-08-24T12:03:31.837Z,2.80
2022-08-24T12:06:27.643Z,2.90
2022-08-24T12:09:12.992Z,3.05
2022-08-24T12:11:55.771Z,8.48
2022-08-24T12:14:51.451Z,5.63
2022-08-24T12:17:18.459Z,8.63
2022-08-24T12:20:01.239Z,3.85
2022-08-24T12:22:30.080Z,3.55
2022-08-24T12:25:00.658Z,5.47
2022-08-24T12:27:33.148Z,11.00
2022-08-24T12:30:12.376Z,6.88
2022-08-24T12:32:44.186Z,2.97
2022-08-24T12:37:58.743Z,1.52
2022-08-24T12:40:30.930Z,4.30
2022-08-24T12:43:09.271Z,4.47
2022-08-24T12:45:37.959Z,2.83
2022-08-24T12:48:16.246Z,4.70
2022-08-24T12:50:52.114Z,3.05
2022-08-24T12:53:38.052Z,3.10
2022-08-24T12:56:55.775Z,6.80
2022-08-24T12:59:38.646Z,2.25
2022-08-24T13:02:11.754Z,3.22
2022-08-24T13:04:51.101Z,2.13
2022-08-24T13:07:24.192Z,5.72
2022-08-24T13:09:53.952Z,2.90
2022-08-24T13:12:41.933Z,2.30
2022-08-24T13:15:23.921Z,5.15
2022-08-24T13:20:28.326Z,7.35
2022-08-24T13:23:13.418Z,7.13
2022-08-24T13:25:51.967Z,6.32
2022-08-24T13:28:25.859Z,4.72
2022-08-24T13:31:18.529Z,6.55
2022-08-24T13:33:48.184Z,2.55
2022-08-24T13:36:53.627Z,6.40
2022-08-24T13:39:49.071Z,5.15
2022-08-24T13:42:38.089Z,3.60
2022-08-24T13:45:19.932Z,4.85
2022-08-24T13:50:41.186Z,4.20
2022-08-24T13:53:34.454Z,4.78
2022-08-24T13:56:44.475Z,6.75
2022-08-24T13:59:36.413Z,3.17
2022-08-24T14:02:14.192Z,6.85
2022-08-24T14:04:47.602Z,2.45
2022-08-24T14:07:23.745Z,4.25
2022-08-24T14:10:02.461Z,2.15
2022-08-24T14:12:32.172Z,9.73
2022-08-24T14:15:17.963Z,2.80
2022-08-24T14:18:06.682Z,2.95
2022-08-24T14:21:01.818Z,2.88
2022-08-24T14:23:33.244Z,2.63
2022-08-24T14:26:31.454Z,3.47
2022-08-24T14:29:18.478Z,3.78
2022-08-24T14:31:58.496Z,2.85
2022-08-24T14:34:40.166Z,4.18
2022-08-24T14:37:13.190Z,2.00
2022-08-24T14:40:06.933Z,4.43
2022-08-24T14:42:37.555Z,3.15
2022-08-24T14:45:30.227Z,3.38
2022-08-24T14:48:39.786Z,2.47
2022-08-24T14:51:35.033Z,3.97
2022-08-24T14:54:37.758Z,4.43
2022-08-24T14:57:28.369Z,3.95
2022-08-24T15:00:13.772Z,12.27
2022-08-24T15:02:42.358Z,2.15
2022-08-24T15:05:21.830Z,6.55
2022-08-24T15:08:27.312Z,3.00
2022-08-24T15:11:08.406Z,3.20
2022-08-24T15:25:46.668Z,5.05
2022-08-24T15:28:28.678Z,4.25
2022-08-24T15:31:10.144Z,2.97
2022-08-24T15:33:59.943Z,3.65
2022-08-24T15:36:30.422Z,5.18
2022-08-24T15:38:58.387Z,3.33
2022-08-24T15:41:35.617Z,2.20
2022-08-24T15:44:21.470Z,2.20
2022-08-24T15:46:57.250Z,6.63
2022-08-24T15:49:24.781Z,3.20
2022-08-24T15:51:55.567Z,2.63
2022-08-24T15:54:31.581Z,5.20
2022-08-24T15:57:17.269Z,3.78
2022-08-24T15:59:44.366Z,2.72
2022-08-24T16:02:26.412Z,2.67
2022-08-24T16:05:24.213Z,9.05
2022-08-24T16:08:03.217Z,3.88
2022-08-24T16:10:46.040Z,3.03
2022-08-24T16:13:19.654Z,5.22
2022-08-24T16:16:11.245Z,4.65
2022-08-24T16:19:02.981Z,6.18
2022-08-24T16:21:50.344Z,4.32
2022-08-24T16:24:21.165Z,4.30
2022-08-24T16:26:48.053Z,5.10
2022-08-24T16:29:36.550Z,3.17
2022-08-24T16:32:21.058Z,2.88
2022-08-24T16:35:13.775Z,1.40
2022-08-24T16:37:41.196Z,6.07
2022-08-24T16:40:09.225Z,3.33
2022-08-24T16:42:36.989Z,2.95
2022-08-24T16:45:10.557Z,2.20
2022-08-24T16:47:37.520Z,2.08
2022-08-24T16:50:06.674Z,3.05
2022-08-24T16:52:33.685Z,5.88
2022-08-24T16:55:01.621Z,2.55
2022-08-24T16:57:31.419Z,5.47
2022-08-24T16:59:58.902Z,3.80
2022-08-24T17:02:26.499Z,2.55
2022-08-24T17:04:54.958Z,5.18
2022-08-24T17:07:25.527Z,6.40
2022-08-24T17:09:53.195Z,10.65
2022-08-24T17:12:20.828Z,4.22
2022-08-24T17:14:48.125Z,5.63
2022-08-24T17:17:21.349Z,5.85
2022-08-24T17:19:53.702Z,3.92
2022-08-24T17:22:23.054Z,2.92
2022-08-24T17:24:50.723Z,6.60
2022-08-24T17:27:20.051Z,1.95
2022-08-24T17:29:47.801Z,6.63
2022-08-24T17:32:16.489Z,5.15
2022-08-24T17:34:43.741Z,4.68
2022-08-24T17:37:11.078Z,2.90
2022-08-24T17:39:38.562Z,6.13
2022-08-24T17:42:20.926Z,1.58
2022-08-24T17:44:54.030Z,5.00
2022-08-24T17:47:21.870Z,2.00
2022-08-24T17:49:49.570Z,2.03
2022-08-24T17:52:16.897Z,1.83
2022-08-24T17:54:43.853Z,3.53
2022-08-24T17:57:13.479Z,3.15
2022-08-24T17:59:41.039Z,6.90
2022-08-24T18:02:13.219Z,2.58
2022-08-24T18:04:41.253Z,2.72
2022-08-24T18:07:12.506Z,8.02
2022-08-24T18:09:54.281Z,4.05
2022-08-24T18:14:50.832Z,2.92
2022-08-24T18:17:32.865Z,2.13
2022-08-24T18:20:00.875Z,2.55
2022-08-24T18:22:28.400Z,4.93
2022-08-24T18:24:55.856Z,1.90
2022-08-24T18:27:28.936Z,2.90
2022-08-24T18:30:01.420Z,2.03
2022-08-24T18:32:31.130Z,5.10
2022-08-24T18:34:59.824Z,3.28
2022-08-24T18:37:26.954Z,2.95
2022-08-24T18:39:54.014Z,2.80
2022-08-24T18:42:24.201Z,6.68
2022-08-24T18:44:51.456Z,8.32
2022-08-24T18:47:18.806Z,2.97
2022-08-24T18:49:46.272Z,3.20
2022-08-24T18:52:16.733Z,4.13
2022-08-24T18:55:10.980Z,1.85
2022-08-24T18:57:42.238Z,3.00
2022-08-24T19:00:18.627Z,4.00
2022-08-24T19:02:48.274Z,2.67
2022-08-24T19:05:20.860Z,4.22
2022-08-24T19:07:52.546Z,5.40
2022-08-24T19:12:52.581Z,2.45
2022-08-24T19:15:32.603Z,3.75
2022-08-24T19:18:09.821Z,4.10
2022-08-24T19:20:42.279Z,3.20
2022-08-24T19:23:14.678Z,4.03
2022-08-24T19:25:45.103Z,6.40
2022-08-24T19:28:12.801Z,3.28
2022-08-24T19:30:42.358Z,3.90
2022-08-24T19:33:14.174Z,3.38
2022-08-24T19:35:42.259Z,3.75
2022-08-24T19:38:09.373Z,3.30
2022-08-24T19:40:37.613Z,3.60
2022-08-24T19:43:06.394Z,3.88
2022-08-24T19:45:54.876Z,3.42
2022-08-24T19:48:24.341Z,5.05
2022-08-24T19:50:54.095Z,4.00
2022-08-24T19:53:25.407Z,3.10
2022-08-24T19:55:52.950Z,4.13
2022-08-24T19:58:27.269Z,5.55
2022-08-24T20:01:02.901Z,3.47
2022-08-24T20:03:30.017Z,3.78
2022-08-24T20:05:57.532Z,5.03
2022-08-24T20:08:24.880Z,7.07
2022-08-24T20:10:56.313Z,3.38
2022-08-24T20:13:23.543Z,5.75
2022-08-24T20:15:53.078Z,3.80
2022-08-24T20:18:26.939Z,3.88
2022-08-24T20:20:53.883Z,5.47
2022-08-24T20:23:21.302Z,3.60
2022-08-24T20:25:51.027Z,5.55
2022-08-24T20:28:29.029Z,4.20
2022-08-24T20:30:57.006Z,2.55
2022-08-24T20:33:25.240Z,4.18
2022-08-24T20:35:52.569Z,3.60
2022-08-24T20:38:21.828Z,5.05
2022-08-24T20:40:50.227Z,4.13
2022-08-24T20:43:17.194Z,5.15
2022-08-24T20:45:44.464Z,4.43
2022-08-24T20:48:13.854Z,2.83
2022-08-24T20:50:45.450Z,5.57
2022-08-24T20:53:12.556Z,5.20
2022-08-24T20:55:41.674Z,3.90
2022-08-24T20:58:09.327Z,9.65
2022-08-24T21:00:37.393Z,2.60
2022-08-24T21:03:05.148Z,5.30
2022-08-24T21:05:33.215Z,3.63
2022-08-24T21:08:00.488Z,4.47
2022-08-24T21:10:28.198Z,4.45
2022-08-24T21:12:55.616Z,6.05
2022-08-24T21:15:23.378Z,5.53
2022-08-24T21:17:56.416Z,3.67
2022-08-24T21:20:23.470Z,6.10
2022-08-24T21:22:50.550Z,7.53
2022-08-24T21:25:18.297Z,6.53
2022-08-24T21:27:48.046Z,4.68
2022-08-24T21:30:21.096Z,6.03
2022-08-24T21:33:07.599Z,4.57
2022-08-24T21:35:36.092Z,6.03
2022-08-24T21:38:04.702Z,6.38
2022-08-24T21:40:32.213Z,6.22
2022-08-24T21:42:59.451Z,3.88
2022-08-24T21:45:27.873Z,4.90
2022-08-24T21:47:55.150Z,13.45
2022-08-24T21:50:25.647Z,7.45
2022-08-24T21:52:54.124Z,5.70
2022-08-24T21:55:21.900Z,7.40
2022-08-24T21:57:49.602Z,6.85
2022-08-24T22:00:19.778Z,7.25
2022-08-24T22:02:48.226Z,8.15
2022-08-24T22:05:16.941Z,6.00
2022-08-24T22:07:45.210Z,6.43
2022-08-24T22:10:13.204Z,5.15
2022-08-24T22:12:43.299Z,8.70
2022-08-24T22:15:14.557Z,7.32
2022-08-24T22:17:42.852Z,7.70
2022-08-24T22:20:20.141Z,7.72
2022-08-24T22:22:51.482Z,6.90
2022-08-24T22:25:18.636Z,6.57
2022-08-24T22:27:46.687Z,4.45
2022-08-24T22:30:17.136Z,5.18
2022-08-24T22:32:45.698Z,4.97
2022-08-24T22:35:14.267Z,4.70
2022-08-24T22:37:42.047Z,3.00
2022-08-24T22:40:12.522Z,4.40
2022-08-24T22:42:40.966Z,8.38
2022-08-24T22:45:09.930Z,6.60
2022-08-24T22:47:38.245Z,4.78
2022-08-24T22:50:06.092Z,10.82
2022-08-24T22:52:33.174Z,8.65
2022-08-24T22:55:00.480Z,9.43
2022-08-24T22:57:28.223Z,6.85
2022-08-24T22:59:57.541Z,4.13
2022-08-24T23:02:24.889Z,7.90
2022-08-24T23:04:52.900Z,6.85
2022-08-24T23:07:20.885Z,4.25
2022-08-24T23:09:49.013Z,4.95
2022-08-24T23:12:20.401Z,4.43
2022-08-24T23:14:50.371Z,5.57
2022-08-24T23:17:18.798Z,8.77
2022-08-24T23:20:01.038Z,7.00
2022-08-24T23:22:37.974Z,5.95
2022-08-24T23:25:07.270Z,8.50
2022-08-24T23:27:37.964Z,5.43
2022-08-24T23:30:09.057Z,6.85
2022-08-24T23:32:36.553Z,8.10
2022-08-24T23:35:04.547Z,5.40
2022-08-24T23:37:31.684Z,5.95
2022-08-24T23:39:59.366Z,6.00
2022-08-24T23:42:26.383Z,7.68
2022-08-24T23:44:53.879Z,4.80
2022-08-24T23:47:21.282Z,4.40
2022-08-24T23:49:48.244Z,8.85
2022-08-24T23:52:27.234Z,5.15
2022-08-24T23:55:18.233Z,3.92
2022-08-24T23:57:44.494Z,7.43
